Time;durP1;ratioP1;P1;durP2;ratioP2;P2;SDS_P1;SDS_P2;PMS_P1;PMS_P2;Temp;Humidity;BMP_temperature;BMP_pressure;BME280_temperature;BME280_humidity;BME280_pressure;Samples;Min_cycle;Max_cycle;Signal;HPM_P1;HPM_P2
2023/09/07 00:00:31;;;;;;;6.63;6.00;;;17.60;84.00;;;17.73;73.33;98371.56;5032938;28;20453;-85
2023/09/07 00:02:59;;;;;;;5.87;5.37;;;17.70;84.30;;;17.69;72.87;98376.72;5028055;28;20466;-85
2023/09/07 00:05:29;;;;;;;5.27;4.77;;;17.60;83.70;;;17.78;73.54;98371.63;5032495;28;20450;-86
2023/09/07 00:07:56;;;;;;;6.20;5.70;;;17.70;84.30;;;17.84;72.69;98373.38;5033502;28;20485;-85
2023/09/07 00:10:25;;;;;;;5.80;5.20;;;17.70;84.00;;;17.96;73.37;98375.13;5048413;28;20485;-82
2023/09/07 00:12:53;;;;;;;7.40;6.00;;;17.80;84.70;;;17.85;72.33;98379.63;5038210;28;20454;-83
2023/09/07 00:15:21;;;;;;;5.80;5.30;;;17.80;83.80;;;17.73;72.05;98362.53;5037877;28;20833;-85
2023/09/07 00:17:49;;;;;;;6.33;5.73;;;17.70;83.80;;;17.71;73.41;98371.00;5033588;28;20507;-84
2023/09/07 00:20:17;;;;;;;6.20;5.70;;;17.60;84.60;;;17.57;72.75;98362.34;5028893;28;20454;-86
2023/09/07 00:22:45;;;;;;;7.60;5.60;;;17.60;83.90;;;17.51;73.67;98369.63;5048842;28;20501;-84
2023/09/07 00:25:13;;;;;;;5.97;5.47;;;17.50;84.00;;;17.35;73.82;98367.78;5032706;28;20615;-84
2023/09/07 00:27:41;;;;;;;6.03;5.43;;;17.40;84.10;;;17.37;74.14;98365.66;5030462;28;20483;-84
2023/09/07 00:30:10;;;;;;;6.70;6.10;;;17.40;84.40;;;17.29;74.89;98377.81;5029026;28;20794;-86
2023/09/07 00:32:37;;;;;;;6.70;5.80;;;17.40;84.70;;;17.30;74.60;98367.72;5029283;28;20469;-85
2023/09/07 00:35:07;;;;;;;6.23;5.63;;;17.40;84.60;;;17.15;74.23;98341.84;5031599;28;20559;-85
2023/09/07 00:37:34;;;;;;;6.13;5.53;;;17.40;84.40;;;17.24;74.74;98367.66;5031468;28;20459;-85
2023/09/07 00:40:03;;;;;;;5.87;5.37;;;17.40;84.50;;;17.33;74.55;98375.41;5029075;28;20453;-87
2023/09/07 00:42:31;;;;;;;7.07;5.67;;;17.40;84.60;;;17.46;75.32;98363.31;5029618;28;20459;-86
2023/09/07 00:44:58;;;;;;;6.57;6.07;;;17.50;84.80;;;17.43;75.18;98370.09;5028303;28;20514;-84
2023/09/07 00:47:25;;;;;;;6.63;5.93;;;17.50;84.80;;;17.73;74.52;98374.31;5042870;28;20459;-87
2023/09/07 00:49:54;;;;;;;6.33;5.60;;;17.60;85.00;;;18.03;73.47;98367.59;5027987;28;20458;-87
2023/09/07 00:52:22;;;;;;;6.13;5.53;;;17.80;84.90;;;17.64;72.60;98368.47;5025120;28;20504;-83
2023/09/07 00:54:50;;;;;;;6.70;6.20;;;17.80;83.70;;;17.48;73.02;98366.59;5028318;28;20621;-87
2023/09/07 00:57:19;;;;;;;5.90;5.40;;;17.60;83.80;;;17.33;74.36;98386.31;5031302;28;20511;-84
2023/09/07 00:59:47;;;;;;;6.50;6.00;;;17.50;84.10;;;16.88;74.20;98331.56;5027347;28;20452;-88
2023/09/07 01:02:14;;;;;;;7.60;6.83;;;17.30;84.10;;;16.94;75.09;98367.97;5032707;28;20468;-85
2023/09/07 01:04:42;;;;;;;6.90;6.30;;;17.10;84.40;;;16.78;76.04;98375.91;5030759;28;20453;-85
2023/09/07 01:07:17;;;;;;;7.83;6.90;;;17.00;84.70;;;16.61;76.65;98367.72;5030582;28;21047;-83
2023/09/07 01:09:47;;;;;;;6.83;6.27;;;16.90;85.00;;;16.50;77.81;98365.88;5044370;28;20506;-84
2023/09/07 01:12:16;;;;;;;7.10;6.40;;;16.80;85.40;;;16.47;77.66;98363.66;5031831;28;22172;-85
2023/09/07 01:14:45;;;;;;;6.73;6.13;;;16.70;85.50;;;16.53;77.74;98365.38;5031629;28;20449;-84
2023/09/07 01:17:16;;;;;;;6.50;6.00;;;16.70;85.70;;;16.54;77.64;98353.41;5033867;28;20455;-85
2023/09/07 01:19:44;;;;;;;8.93;6.63;;;16.80;85.50;;;16.50;77.89;98355.78;5046956;28;20460;-83
2023/09/07 01:22:14;;;;;;;6.70;5.97;;;16.80;85.70;;;16.47;77.76;98359.00;5033795;28;20461;-83
2023/09/07 01:24:44;;;;;;;6.90;6.20;;;16.80;85.60;;;16.48;77.97;98360.66;5035297;28;20456;-82
2023/09/07 01:27:13;;;;;;;8.67;6.47;;;16.70;85.80;;;16.47;77.68;98347.28;5034325;28;20445;-83
2023/09/07 01:29:41;;;;;;;7.50;6.77;;;16.70;85.70;;;16.40;79.04;98350.97;5038530;28;20497;-83
2023/09/07 01:32:09;;;;;;;7.17;6.57;;;16.60;86.00;;;16.29;78.42;98349.13;5044750;28;20470;-83
2023/09/07 01:34:37;;;;;;;6.30;5.70;;;16.60;86.10;;;16.22;78.53;98346.56;5041161;28;20448;-83
2023/09/07 01:37:05;;;;;;;6.93;6.23;;;16.50;86.10;;;16.25;78.86;98354.28;5043809;28;20450;-83
2023/09/07 01:39:33;;;;;;;7.93;7.00;;;16.50;86.20;;;16.20;79.36;98353.34;5041353;28;20514;-81
2023/09/07 01:42:01;;;;;;;7.20;6.50;;;16.40;86.40;;;16.12;79.92;98355.38;5055373;28;20484;-83
2023/09/07 01:44:29;;;;;;;7.50;6.83;;;16.40;86.80;;;16.04;80.46;98355.78;5036155;28;20448;-86
2023/09/07 01:46:57;;;;;;;7.30;6.70;;;16.30;86.90;;;16.13;79.72;98354.31;5033728;28;20495;-82
2023/09/07 01:49:24;;;;;;;7.40;6.70;;;16.30;86.80;;;16.10;80.85;98360.25;5031073;28;20468;-84
2023/09/07 01:51:53;;;;;;;9.87;6.93;;;16.40;87.20;;;16.18;81.05;98345.41;5032837;28;20940;-83
2023/09/07 01:54:22;;;;;;;7.50;6.80;;;16.40;87.80;;;16.22;79.55;98349.28;5024869;28;20463;-83
2023/09/07 01:56:51;;;;;;;7.70;7.10;;;16.30;87.90;;;16.29;78.61;98343.69;5028604;28;20472;-83
2023/09/07 01:59:19;;;;;;;8.20;7.10;;;16.40;87.30;;;16.39;79.30;98345.78;5028149;28;20464;-85
2023/09/07 02:01:46;;;;;;;9.20;6.80;;;16.50;87.40;;;16.41;78.92;98344.44;5025976;28;20463;-84
2023/09/07 02:04:14;;;;;;;7.63;7.00;;;16.60;87.30;;;16.57;78.32;98339.25;5025535;28;20948;-84
2023/09/07 02:06:41;;;;;;;7.40;6.70;;;16.70;87.10;;;16.54;78.54;98347.94;5029856;28;20470;-82
2023/09/07 02:09:10;;;;;;;7.10;6.40;;;16.70;87.10;;;16.69;78.41;98344.66;5023993;28;21332;-83
2023/09/07 02:11:37;;;;;;;7.00;6.30;;;16.70;87.50;;;16.57;78.34;98342.00;5027581;28;20456;-84
2023/09/07 02:14:05;;;;;;;7.20;6.57;;;16.60;87.20;;;16.39;78.49;98335.69;5024544;28;20466;-84
2023/09/07 02:16:33;;;;;;;7.10;6.50;;;16.60;87.20;;;16.43;78.11;98355.13;5026606;28;20479;-86
2023/09/07 02:19:04;;;;;;;7.33;6.50;;;16.50;87.30;;;16.61;80.79;98343.16;5030635;28;20775;-85
2023/09/07 02:21:31;;;;;;;7.90;6.47;;;16.50;88.90;;;16.56;78.69;98359.44;5029518;28;20465;-84
2023/09/07 02:23:59;;;;;;;7.57;6.80;;;16.50;87.70;;;16.44;77.58;98354.06;5046163;28;20456;-85
2023/09/07 02:26:26;;;;;;;11.60;7.60;;;16.50;87.10;;;16.20;78.65;98350.63;5043761;28;20481;-87
2023/09/07 02:28:54;;;;;;;7.30;6.57;;;16.40;87.30;;;16.16;78.58;98352.19;5028124;28;20502;-84
2023/09/07 02:31:23;;;;;;;7.30;6.70;;;16.30;87.30;;;16.04;79.82;98355.78;5027199;28;20925;-86
2023/09/07 02:33:50;;;;;;;8.63;7.30;;;16.30;87.70;;;15.91;80.70;98361.50;5027360;28;20597;-86
2023/09/07 02:36:18;;;;;;;7.47;6.47;;;16.20;87.90;;;15.89;82.39;98353.56;5029670;28;20460;-84
2023/09/07 02:38:45;;;;;;;6.90;6.30;;;16.10;88.80;;;15.76;80.76;98351.09;5031820;28;20464;-87
2023/09/07 02:41:13;;;;;;;7.77;6.97;;;16.00;88.30;;;15.82;83.39;98361.84;5028124;28;20464;-87
2023/09/07 02:43:40;;;;;;;7.23;6.63;;;16.00;88.80;;;15.77;81.87;98359.03;5027140;28;20840;-83
2023/09/07 02:46:08;;;;;;;8.03;6.77;;;16.00;88.80;;;15.73;81.98;98350.50;5027399;28;20975;-83
2023/09/07 02:48:36;;;;;;;8.00;7.20;;;16.00;89.00;;;15.47;82.13;98356.47;5029001;28;20473;-86
2023/09/07 02:51:04;;;;;;;7.60;6.90;;;15.80;88.70;;;15.41;82.91;98358.28;5027199;28;20510;-85
2023/09/07 02:53:32;;;;;;;9.00;8.20;;;15.70;89.10;;;15.34;83.03;98357.56;5026907;28;20445;-86
2023/09/07 02:56:00;;;;;;;8.33;7.60;;;15.70;89.40;;;15.30;83.53;98358.03;5044295;28;20448;-86
2023/09/07 02:58:28;;;;;;;8.03;7.23;;;15.60;89.60;;;15.34;84.19;98355.69;5023347;28;20471;-85
2023/09/07 03:00:56;;;;;;;7.67;7.07;;;15.60;90.20;;;15.24;84.87;98359.00;5028233;28;20448;-80
2023/09/07 03:03:24;;;;;;;8.50;7.43;;;15.50;90.20;;;15.05;85.16;98327.53;5034444;28;20993;-82
2023/09/07 03:05:54;;;;;;;7.70;7.07;;;15.50;90.50;;;15.12;84.31;98369.06;5034167;28;20445;-83
2023/09/07 03:08:21;;;;;;;9.03;8.23;;;15.40;90.40;;;14.97;85.31;98367.63;5032416;28;20527;-83
2023/09/07 03:10:49;;;;;;;8.80;8.00;;;15.30;90.50;;;14.82;85.76;98367.28;5026428;28;20462;-82
2023/09/07 03:13:16;;;;;;;8.53;7.63;;;15.10;90.90;;;14.70;86.76;98368.03;5025971;28;20440;-86
2023/09/07 03:15:43;;;;;;;8.77;7.93;;;14.90;91.30;;;14.67;87.34;98365.81;5029031;28;20456;-83
2023/09/07 03:18:11;;;;;;;8.60;7.90;;;14.90;91.90;;;14.65;87.72;98364.38;5029202;28;20519;-85
2023/09/07 03:20:38;;;;;;;7.97;7.17;;;14.90;92.10;;;14.41;89.02;98356.97;5024995;28;20983;-86
2023/09/07 03:23:06;;;;;;;8.47;7.67;;;14.70;92.40;;;14.35;89.40;98346.22;5024648;28;20443;-82
2023/09/07 03:25:34;;;;;;;9.20;8.40;;;14.60;92.90;;;14.31;89.65;98362.13;5030719;28;20453;-86
2023/09/07 03:28:01;;;;;;;8.73;8.03;;;14.50;93.20;;;14.30;90.08;98364.06;5028929;28;20465;-82
2023/09/07 03:30:28;;;;;;;8.83;8.07;;;14.50;93.80;;;14.28;90.05;98357.19;5027888;28;20528;-85
2023/09/07 03:32:56;;;;;;;9.50;8.27;;;14.40;94.00;;;14.10;90.97;98339.88;5024140;28;20535;-82
2023/09/07 03:35:23;;;;;;;9.50;8.60;;;14.40;94.40;;;14.32;91.95;98350.22;5028470;28;20459;-80
2023/09/07 03:37:51;;;;;;;9.27;8.37;;;14.40;95.50;;;14.55;89.68;98356.78;5029765;28;20448;-80
2023/09/07 03:40:20;;;;;;;11.03;8.97;;;14.60;94.70;;;14.56;89.17;98359.28;5025641;28;20936;-87
2023/09/07 03:42:47;;;;;;;9.93;7.70;;;14.70;93.70;;;14.52;89.41;98346.38;5017290;28;20942;-87
2023/09/07 03:45:13;;;;;;;8.03;7.33;;;14.80;93.70;;;14.61;88.67;98364.00;5022905;28;20454;-85
2023/09/07 03:47:40;;;;;;;8.20;7.20;;;14.80;93.30;;;14.57;88.56;98354.66;5023455;28;20650;-85
2023/09/07 03:50:09;;;;;;;9.30;8.33;;;14.80;92.80;;;14.43;88.51;98349.41;5026623;28;20553;-87
2023/09/07 03:52:36;;;;;;;9.77;8.20;;;14.80;92.70;;;14.38;88.94;98362.03;5035816;28;20445;-81
2023/09/07 03:55:03;;;;;;;8.97;8.27;;;14.60;93.20;;;14.19;89.82;98353.97;5029955;28;20934;-85
2023/09/07 03:57:32;;;;;;;9.23;8.43;;;14.50;93.20;;;14.13;90.06;98360.31;5023476;28;20516;-83
2023/09/07 04:00:01;;;;;;;9.00;8.10;;;14.40;93.60;;;14.12;90.56;98364.91;5022136;28;20456;-87
2023/09/07 04:02:28;;;;;;;8.40;7.60;;;14.40;93.80;;;14.00;92.02;98359.44;5020913;28;20454;-85
2023/09/07 04:04:56;;;;;;;8.83;7.83;;;14.30;94.50;;;13.90;92.40;98363.78;5036769;28;20459;-87
2023/09/07 04:07:24;;;;;;;10.20;8.43;;;14.20;95.00;;;13.99;92.55;98362.38;5022707;28;20877;-86
2023/09/07 04:09:51;;;;;;;11.73;9.47;;;14.20;95.80;;;13.95;91.55;98358.47;5024396;28;20799;-83
2023/09/07 04:12:18;;;;;;;11.53;8.47;;;14.20;94.90;;;13.97;91.89;98362.63;5035885;28;20443;-86
2023/09/07 04:14:47;;;;;;;10.37;9.43;;;14.20;94.70;;;13.90;92.24;98369.19;5022886;28;20459;-83
2023/09/07 04:17:14;;;;;;;9.53;8.70;;;14.20;94.80;;;13.83;93.11;98361.94;5022746;28;20475;-84
2023/09/07 04:19:43;;;;;;;8.83;8.10;;;14.10;95.30;;;13.74;93.46;98363.34;5031894;28;20459;-85
2023/09/07 04:22:11;;;;;;;11.53;8.47;;;14.00;95.40;;;13.70;93.62;98362.94;5028222;28;20513;-85
2023/09/07 04:24:38;;;;;;;9.50;8.70;;;14.00;95.60;;;13.64;94.00;98363.84;5028417;28;20465;-85
2023/09/07 04:27:07;;;;;;;9.60;8.80;;;13.90;96.10;;;13.67;93.93;98362.56;5028983;28;20454;-85
2023/09/07 04:29:34;;;;;;;10.27;9.20;;;14.00;96.30;;;13.62;94.54;98354.28;5028222;28;20532;-82
2023/09/07 04:32:06;;;;;;;9.50;8.70;;;13.90;96.70;;;13.57;94.10;98363.94;5022144;28;20521;-88
2023/09/07 04:34:33;;;;;;;9.83;8.93;;;13.90;96.20;;;13.49;94.38;98366.94;5029115;28;20465;-82
2023/09/07 04:37:00;;;;;;;10.60;9.50;;;13.80;96.00;;;13.44;95.17;98374.94;5030201;28;20998;-88
2023/09/07 04:39:28;;;;;;;10.50;9.60;;;13.70;96.60;;;13.50;95.36;98379.47;5028844;28;20651;-87
2023/09/07 04:41:55;;;;;;;10.50;9.50;;;13.80;97.20;;;13.50;94.80;98378.66;5031797;28;20458;-84
2023/09/07 04:44:22;;;;;;;10.57;9.63;;;13.80;96.80;;;13.48;95.38;98376.16;5028850;28;20480;-86
2023/09/07 04:46:49;;;;;;;9.83;8.80;;;13.70;97.30;;;13.49;95.34;98375.09;5027751;28;20466;-87
2023/09/07 04:49:18;;;;;;;10.03;9.13;;;13.80;97.10;;;13.44;95.61;98380.38;5029688;28;20505;-84
2023/09/07 04:51:45;;;;;;;10.43;9.47;;;13.70;97.00;;;13.43;95.19;98379.53;5030232;28;20931;-86
2023/09/07 04:54:13;;;;;;;10.23;9.33;;;13.70;96.90;;;13.44;95.88;98383.09;5031976;28;20463;-87
2023/09/07 04:56:40;;;;;;;10.63;9.53;;;13.70;97.20;;;13.42;96.58;98382.44;5033727;28;20546;-86
2023/09/07 04:59:07;;;;;;;10.07;9.17;;;13.70;97.40;;;13.49;95.35;98353.38;5025123;28;20458;-83
2023/09/07 05:01:36;;;;;;;9.40;8.47;;;14.00;98.10;;;14.01;92.78;98361.09;5035408;28;20455;-85
2023/09/07 05:04:03;;;;;;;15.37;10.00;;;14.50;95.60;;;14.61;90.14;98384.94;5026692;28;20505;-82
2023/09/07 05:06:36;;;;;;;9.93;8.80;;;15.10;93.20;;;14.92;86.55;98389.25;5024690;28;20453;-82
2023/09/07 05:09:04;;;;;;;10.43;9.43;;;15.70;91.50;;;15.51;83.63;98388.44;5042242;28;20540;-86
2023/09/07 05:11:34;;;;;;;10.70;8.67;;;16.20;90.30;;;15.75;81.13;98390.28;5053805;28;20441;-84
2023/09/07 05:14:01;;;;;;;10.13;9.10;;;16.50;88.90;;;16.20;78.73;98396.97;5036939;28;20588;-79
2023/09/07 05:16:29;;;;;;;9.07;8.17;;;17.00;87.60;;;16.40;77.05;98391.88;5032296;28;20545;-83
2023/09/07 05:18:56;;;;;;;9.10;8.30;;;17.40;86.10;;;16.76;75.02;98399.06;5048797;28;20956;-84
2023/09/07 05:21:23;;;;;;;9.10;8.20;;;17.80;85.20;;;16.94;73.58;98398.81;5034383;28;20456;-84
2023/09/07 05:23:52;;;;;;;11.07;8.00;;;18.00;84.10;;;17.11;72.84;98393.38;5039161;28;20939;-84
2023/09/07 05:26:23;;;;;;;8.70;7.80;;;18.20;83.50;;;16.88;72.95;98396.25;5028898;28;20483;-84
2023/09/07 05:28:51;;;;;;;9.40;8.50;;;18.10;83.10;;;16.31;74.88;98403.44;5025334;28;20481;-84
2023/09/07 05:31:18;;;;;;;9.23;8.33;;;17.50;83.30;;;15.80;77.08;98404.84;5028107;28;20954;-84
2023/09/07 05:33:45;;;;;;;8.90;8.10;;;16.80;84.20;;;15.32;80.25;98411.41;5026384;28;21095;-84
2023/09/07 05:36:13;;;;;;;10.23;8.67;;;16.10;85.80;;;15.07;82.34;98401.56;5025018;28;20500;-86
2023/09/07 05:38:40;;;;;;;10.40;8.77;;;15.70;87.40;;;14.86;83.69;98411.97;5039603;28;20452;-80
2023/09/07 05:41:09;;;;;;;10.50;9.50;;;15.40;88.30;;;14.70;84.65;98408.00;5027098;28;20462;-82
2023/09/07 05:43:36;;;;;;;10.03;9.03;;;15.20;89.70;;;14.61;86.12;98421.09;5020052;28;20466;-81
2023/09/07 05:46:03;;;;;;;9.07;8.27;;;15.00;90.50;;;14.57;86.34;98412.59;5028857;28;20960;-82
2023/09/07 05:48:30;;;;;;;10.07;9.03;;;14.90;90.90;;;14.55;86.33;98411.16;5023856;28;21048;-81
2023/09/07 05:50:57;;;;;;;10.23;9.23;;;14.90;91.30;;;14.66;85.95;98401.38;5022474;28;20524;-78
2023/09/07 05:53:26;;;;;;;9.73;8.73;;;14.90;91.60;;;14.73;86.16;98404.88;5021465;28;20509;-81
2023/09/07 05:55:53;;;;;;;10.07;9.17;;;15.00;91.50;;;14.75;86.20;98410.06;5016881;28;20451;-82
2023/09/07 05:58:22;;;;;;;9.57;8.53;;;15.00;91.40;;;14.75;86.09;98399.16;5020935;28;20488;-84
2023/09/07 06:00:49;;;;;;;10.40;9.40;;;15.00;91.60;;;14.81;86.31;98401.78;5017355;28;20462;-79
2023/09/07 06:03:16;;;;;;;10.27;9.37;;;15.10;91.70;;;14.88;86.47;98404.41;5031856;28;21769;-78
2023/09/07 06:05:44;;;;;;;9.47;8.57;;;15.10;91.80;;;15.08;84.96;98412.25;5032856;28;22969;-80
2023/09/07 06:08:11;;;;;;;9.40;8.37;;;15.30;91.50;;;15.33;83.46;98410.34;5034099;28;20480;-80
2023/09/07 06:10:39;;;;;;;9.30;8.40;;;15.50;91.00;;;15.37;82.70;98408.81;5019990;28;20465;-77
2023/09/07 06:13:06;;;;;;;7.53;6.87;;;15.70;90.50;;;15.53;81.20;98410.81;5021652;28;20963;-78
2023/09/07 06:15:35;;;;;;;8.97;8.07;;;15.90;90.00;;;15.63;80.92;98414.84;5019973;28;20493;-77
2023/09/07 06:18:03;;;;;;;8.03;7.23;;;16.00;89.70;;;15.70;80.24;98415.56;5017807;28;20471;-78
2023/09/07 06:20:30;;;;;;;8.90;8.10;;;16.10;89.10;;;15.80;80.15;98410.31;5026564;28;20484;-77
2023/09/07 06:22:57;;;;;;;9.17;7.47;;;16.20;89.10;;;15.85;80.14;98418.59;5015791;28;20865;-77
2023/09/07 06:25:24;;;;;;;8.43;7.63;;;16.20;89.10;;;15.98;78.95;98417.53;5006348;28;20536;-77
2023/09/07 06:27:51;;;;;;;8.50;7.57;;;16.30;88.40;;;16.17;78.00;98413.81;5018642;28;21029;-78
2023/09/07 06:30:19;;;;;;;7.70;7.00;;;16.50;88.20;;;16.20;77.84;98413.31;5013064;28;20488;-78
2023/09/07 06:32:48;;;;;;;7.07;6.47;;;16.50;87.80;;;16.34;77.40;98413.84;5022301;28;20546;-79
2023/09/07 06:35:15;;;;;;;9.10;7.23;;;16.70;87.80;;;16.42;77.02;98411.53;5016871;28;20472;-79
2023/09/07 06:37:43;;;;;;;7.50;6.80;;;16.80;87.40;;;16.53;76.29;98423.50;5012628;28;20652;-78
2023/09/07 06:40:11;;;;;;;7.03;6.43;;;16.90;87.30;;;16.69;76.20;98410.94;5015364;28;20467;-78
2023/09/07 06:42:39;;;;;;;7.43;6.83;;;17.00;87.30;;;16.77;75.45;98417.09;5014500;28;20466;-78
2023/09/07 06:45:07;;;;;;;8.37;7.57;;;17.10;86.90;;;16.88;75.33;98418.91;5006934;28;20489;-78
2023/09/07 06:47:35;;;;;;;7.00;6.40;;;17.10;87.00;;;17.01;75.11;98425.13;5039126;28;20540;-78
2023/09/07 06:50:05;;;;;;;7.20;6.60;;;17.30;86.90;;;17.11;74.37;98428.03;5019614;28;20476;-78
2023/09/07 06:52:32;;;;;;;7.27;6.57;;;17.40;86.50;;;17.26;73.72;98420.09;5023175;28;20457;-78
2023/09/07 06:55:00;;;;;;;9.90;7.57;;;17.50;86.20;;;17.28;73.98;98428.84;5034971;28;20450;-86
2023/09/07 06:57:27;;;;;;;7.73;7.00;;;17.60;86.20;;;17.35;72.92;98395.91;5023249;28;20519;-85
2023/09/07 06:59:54;;;;;;;7.00;6.47;;;17.70;85.90;;;17.31;72.51;98386.59;5019401;28;20458;-85
2023/09/07 07:02:23;;;;;;;7.17;6.57;;;17.80;85.50;;;17.57;72.24;98408.78;5017553;28;20457;-86
2023/09/07 07:04:50;;;;;;;7.63;6.83;;;17.80;85.30;;;17.59;71.63;98394.88;5006303;28;20452;-84
2023/09/07 07:07:19;;;;;;;6.43;5.80;;;18.00;85.10;;;17.78;70.68;98409.88;5040696;28;21118;-84
2023/09/07 07:09:46;;;;;;;7.70;6.73;;;18.10;84.60;;;17.91;71.09;98416.06;5022807;28;20488;-84
2023/09/07 07:12:14;;;;;;;7.13;6.43;;;18.20;84.80;;;17.91;70.65;98396.94;5032814;28;20905;-87
2023/09/07 07:14:41;;;;;;;9.70;5.83;;;18.30;84.70;;;18.12;69.91;98415.28;5020643;28;20450;-85
2023/09/07 07:17:08;;;;;;;6.90;6.30;;;18.40;84.20;;;18.14;69.93;98406.81;5026118;28;20465;-84
2023/09/07 07:19:36;;;;;;;6.63;6.03;;;18.50;84.10;;;18.33;69.66;98415.50;5021821;28;20580;-85
2023/09/07 07:22:03;;;;;;;8.53;6.60;;;18.60;84.50;;;18.34;69.16;98417.16;5024398;28;20480;-87
2023/09/07 07:24:32;;;;;;;6.63;6.03;;;18.70;83.90;;;18.37;68.77;98389.28;5024490;28;20548;-89
2023/09/07 07:27:00;;;;;;;7.17;6.57;;;18.80;83.70;;;18.60;67.56;98401.00;5018892;28;20508;-87
2023/09/07 07:29:27;;;;;;;8.60;6.27;;;18.90;83.10;;;18.48;66.65;98367.50;5025383;28;20817;-86
2023/09/07 07:31:55;;;;;;;8.20;6.57;;;19.10;82.60;;;18.76;66.71;98407.44;5016231;28;20511;-88
2023/09/07 07:34:22;;;;;;;7.43;6.73;;;19.00;82.20;;;18.84;66.35;98414.34;5042734;28;20452;-86
2023/09/07 07:36:50;;;;;;;7.27;6.53;;;19.10;82.10;;;18.83;66.92;98415.44;5025204;28;20950;-85
2023/09/07 07:39:17;;;;;;;7.73;6.20;;;19.20;82.20;;;18.92;66.52;98402.09;5023067;28;20977;-85
2023/09/07 07:41:46;;;;;;;7.33;6.00;;;19.30;82.30;;;19.01;66.41;98410.69;5022239;28;20530;-86
2023/09/07 07:44:14;;;;;;;10.13;7.93;;;19.40;82.20;;;18.84;65.64;98356.88;5025429;28;20518;-85
2023/09/07 07:46:41;;;;;;;13.03;8.37;;;19.40;81.70;;;19.41;65.23;98417.56;5024410;28;20457;-86
2023/09/07 07:49:09;;;;;;;11.43;6.90;;;19.60;81.60;;;19.42;64.42;98391.81;5024170;28;20455;-89
2023/09/07 07:51:36;;;;;;;10.80;6.87;;;19.70;81.30;;;19.72;63.74;98404.03;5022830;28;20474;-86
2023/09/07 07:54:04;;;;;;;8.33;7.47;;;19.90;81.00;;;19.73;63.33;98394.72;5026105;28;20554;-85
2023/09/07 07:56:31;;;;;;;11.53;7.20;;;20.00;80.50;;;19.51;63.72;98390.25;5026080;28;20815;-86
2023/09/07 07:58:59;;;;;;;6.27;5.67;;;20.00;80.20;;;19.64;62.74;98404.56;5024112;28;21205;-86
2023/09/07 08:01:27;;;;;;;6.47;5.80;;;20.00;79.60;;;19.81;62.35;98405.19;5026127;28;20461;-85
2023/09/07 08:03:55;;;;;;;7.03;6.33;;;20.00;79.40;;;19.99;62.90;98399.53;5040621;28;20507;-86
2023/09/07 08:06:23;;;;;;;6.27;5.67;;;20.20;80.00;;;19.97;61.55;98397.06;5045956;28;20460;-85
2023/09/07 08:08:50;;;;;;;6.97;6.30;;;20.30;78.90;;;19.96;61.03;98387.19;5027294;28;20466;-88
2023/09/07 08:11:21;;;;;;;6.40;5.80;;;20.40;78.40;;;20.09;60.78;98410.53;5020903;28;20503;-86
2023/09/07 08:13:48;;;;;;;6.73;5.93;;;20.40;78.10;;;20.16;61.22;98421.25;5002486;28;20941;-86
2023/09/07 08:16:18;;;;;;;7.77;5.40;;;20.40;78.10;;;19.98;60.80;98382.25;5022614;28;20467;-86
2023/09/07 08:18:45;;;;;;;6.10;5.50;;;20.50;77.90;;;20.23;60.45;98417.19;5024516;28;20570;-88
2023/09/07 08:21:16;;;;;;;5.93;5.40;;;20.50;77.50;;;20.48;59.83;98417.50;5043195;28;20584;-87
2023/09/07 08:23:43;;;;;;;5.97;5.50;;;20.60;77.30;;;20.64;59.82;98416.44;5025520;28;20854;-83
2023/09/07 08:26:12;;;;;;;7.40;5.30;;;20.80;77.50;;;20.45;58.94;98377.72;5033215;28;20438;-84
2023/09/07 08:28:40;;;;;;;6.00;5.07;;;20.90;76.90;;;20.65;58.85;98417.28;5025737;28;20464;-84
2023/09/07 08:31:07;;;;;;;5.60;5.10;;;20.90;76.40;;;20.64;58.55;98388.19;5030013;28;20828;-84
2023/09/07 08:33:40;;;;;;;6.17;5.60;;;21.00;76.30;;;21.01;59.17;98408.28;5020176;28;20561;-88
2023/09/07 08:36:08;;;;;;;6.00;5.50;;;21.20;76.90;;;21.10;58.58;98412.09;5030156;28;20543;-87
2023/09/07 08:38:36;;;;;;;5.60;5.10;;;21.30;76.40;;;21.27;57.63;98422.00;5030506;28;20546;-86
2023/09/07 08:41:05;;;;;;;5.93;5.30;;;21.40;76.00;;;21.20;57.11;98414.03;5031339;28;20441;-84
2023/09/07 08:43:36;;;;;;;5.77;5.17;;;21.50;75.20;;;21.31;56.97;98406.63;5044404;28;20539;-84
2023/09/07 08:46:15;;;;;;;6.83;5.20;;;21.60;75.30;;;21.56;56.73;98410.41;5041904;28;20450;-85
2023/09/07 08:48:46;;;;;;;5.70;5.17;;;21.70;75.20;;;21.59;56.18;98412.59;5042323;28;20446;-87
2023/09/07 08:51:14;;;;;;;7.23;5.43;;;21.70;74.50;;;21.63;56.20;98399.97;5041127;28;20958;-85
2023/09/07 08:53:45;;;;;;;4.60;4.30;;;21.80;74.60;;;21.57;55.95;98414.81;5049667;28;20440;-88
2023/09/07 08:56:14;;;;;;;5.50;5.00;;;21.80;73.90;;;21.63;56.33;98413.69;5065682;28;20463;-87
2023/09/07 08:58:41;;;;;;;5.87;5.30;;;21.80;74.20;;;21.84;55.68;98413.66;5028502;28;20465;-81
2023/09/07 09:01:09;;;;;;;5.30;4.80;;;22.00;74.10;;;22.02;55.11;98398.47;5019012;28;20549;-82
2023/09/07 09:03:36;;;;;;;5.27;4.80;;;22.20;73.90;;;21.86;54.39;98408.69;5022674;28;20492;-84
2023/09/07 09:06:06;;;;;;;5.80;5.30;;;22.10;72.30;;;22.10;54.44;98408.06;5024098;28;20498;-83
2023/09/07 09:08:43;;;;;;;5.23;4.77;;;22.20;72.60;;;22.21;54.25;98407.72;5007063;28;20459;-83
2023/09/07 09:11:11;;;;;;;5.30;4.80;;;22.40;72.90;;;22.28;54.22;98404.66;5019238;28;20481;-82
2023/09/07 09:13:40;;;;;;;5.60;5.20;;;22.50;72.70;;;22.39;54.52;98390.88;5018746;28;20463;-83
2023/09/07 09:16:08;;;;;;;7.03;5.57;;;22.60;73.10;;;22.50;53.87;98404.31;5024427;28;20495;-83
2023/09/07 09:18:35;;;;;;;5.93;5.33;;;22.70;72.50;;;22.44;54.35;98401.84;5019002;28;20456;-86
2023/09/07 09:21:02;;;;;;;6.23;5.57;;;22.70;72.70;;;22.59;53.68;98407.28;5020799;28;20453;-83
2023/09/07 09:23:34;;;;;;;5.27;4.77;;;22.70;72.20;;;22.62;53.26;98400.38;5026098;28;20470;-86
2023/09/07 09:26:03;;;;;;;5.07;4.57;;;22.80;71.90;;;22.72;53.22;98402.25;5023346;28;20453;-84
2023/09/07 09:28:32;;;;;;;4.97;4.57;;;22.80;71.80;;;22.89;53.97;98405.41;5020869;28;20952;-86
2023/09/07 09:31:00;;;;;;;5.60;5.20;;;22.90;72.30;;;22.81;52.93;98397.75;5022359;28;20473;-84
2023/09/07 09:33:28;;;;;;;5.60;5.20;;;23.00;71.40;;;22.74;53.01;98394.50;5016558;28;20461;-82
2023/09/07 09:35:56;;;;;;;5.30;4.90;;;23.00;71.20;;;22.90;52.43;98397.97;5023293;28;20542;-84
2023/09/07 09:38:25;;;;;;;6.97;5.57;;;23.10;70.70;;;23.02;51.24;98394.84;5016242;28;20512;-85
2023/09/07 09:40:55;;;;;;;5.57;5.10;;;23.20;70.00;;;23.01;52.00;98396.75;5016335;28;20457;-84
2023/09/07 09:43:23;;;;;;;6.53;4.37;;;23.20;70.10;;;22.86;51.98;98367.44;5034256;28;20452;-87
2023/09/07 09:45:53;;;;;;;6.10;5.13;;;23.20;70.10;;;23.16;51.71;98393.06;5037971;28;20934;-85
2023/09/07 09:48:21;;;;;;;4.93;4.50;;;23.30;70.00;;;23.23;50.95;98386.38;5033775;28;20479;-84
2023/09/07 09:50:48;;;;;;;4.30;4.00;;;23.30;69.30;;;23.25;49.26;98384.16;5034810;28;20489;-78
2023/09/07 09:53:18;;;;;;;4.83;4.50;;;23.40;67.40;;;23.28;48.79;98378.13;5016890;28;20456;-78
2023/09/07 09:55:47;;;;;;;4.60;4.20;;;23.40;66.90;;;23.43;49.31;98380.72;5017418;28;20459;-78
2023/09/07 09:58:17;;;;;;;4.93;4.43;;;23.50;67.20;;;23.58;49.10;98381.63;5019907;28;20484;-78
2023/09/07 10:00:45;;;;;;;5.27;4.77;;;23.70;67.50;;;23.55;48.63;98377.56;5020456;28;20494;-79
2023/09/07 10:03:20;;;;;;;4.97;4.23;;;23.70;66.50;;;23.55;49.63;98393.25;5020164;28;20469;-79
2023/09/07 10:05:47;;;;;;;5.27;4.87;;;23.70;67.40;;;23.66;49.21;98385.69;5023199;28;20458;-79
2023/09/07 10:08:16;;;;;;;5.90;4.50;;;23.80;67.30;;;23.66;49.56;98382.94;5014603;28;20465;-79
2023/09/07 10:10:48;;;;;;;5.33;4.67;;;23.80;67.50;;;23.59;48.59;98380.56;5019644;28;22057;-79
2023/09/07 10:13:17;;;;;;;5.70;5.20;;;23.80;66.40;;;23.43;49.31;98375.19;5013698;28;20557;-79
2023/09/07 10:15:45;;;;;;;5.57;5.13;;;23.90;66.40;;;23.45;49.04;98378.50;5016430;28;20451;-79
2023/09/07 10:18:15;;;;;;;4.80;4.40;;;23.80;66.30;;;23.55;48.90;98371.19;5016647;28;20472;-78
2023/09/07 10:20:56;;;;;;;6.33;4.80;;;23.90;66.10;;;23.70;49.54;98371.03;5017307;28;20449;-79